createdAt,value
2019-03-04T12:04:55.605Z,83.10
2019-03-04T12:05:41.811Z,81.00
2019-03-04T12:06:27.395Z,85.80
2019-03-04T12:07:13.595Z,83.00
2019-03-04T12:08:59.660Z,86.30
2019-03-04T12:09:46.437Z,85.60
2019-03-04T12:10:32.656Z,85.70
2019-03-04T12:11:20.651Z,86.10
2019-03-04T12:12:07.508Z,86.40
2019-03-04T12:12:54.489Z,86.70
2019-03-04T12:13:40.476Z,87.00
2019-03-04T12:14:27.463Z,87.20
2019-03-04T12:15:17.520Z,87.10
2019-03-04T12:16:06.421Z,87.50
2019-03-04T12:16:52.696Z,87.90
2019-03-04T13:46:56.594Z,90.20
2019-03-04T13:47:48.667Z,90.60
2019-03-04T13:48:34.308Z,90.80
2019-03-04T13:49:21.240Z,90.90
2019-03-04T13:50:09.965Z,91.00
2019-03-04T13:51:01.147Z,91.10
2019-03-04T13:51:45.068Z,91.10
2019-03-04T13:52:28.199Z,91.30
2019-03-04T13:53:14.896Z,91.20
2019-03-04T13:54:00.005Z,91.20
2019-03-04T13:54:48.032Z,91.10
2019-03-04T13:55:36.267Z,91.30
2019-03-04T13:56:25.607Z,91.30
2019-03-04T13:57:13.606Z,91.40
2019-03-04T13:58:02.468Z,91.40
2019-03-04T13:58:50.526Z,91.40
2019-03-04T13:59:35.310Z,91.40
2019-03-04T14:00:24.453Z,91.40
2019-03-04T14:01:09.590Z,91.40
2019-03-04T14:01:54.500Z,91.40
2019-03-04T14:02:39.986Z,91.40
2019-03-04T14:03:25.032Z,91.50
2019-03-04T14:04:10.093Z,91.50
2019-03-04T14:04:55.320Z,91.50
2019-03-04T14:05:45.006Z,91.60
2019-03-04T14:06:29.526Z,91.70
2019-03-04T14:07:14.133Z,91.70
2019-03-04T14:07:58.263Z,92.00
2019-03-04T14:08:42.987Z,91.80
2019-03-04T14:09:28.309Z,91.90
2019-03-04T14:10:14.991Z,91.90
2019-03-04T14:10:59.978Z,91.90
2019-03-04T14:11:43.634Z,92.00
2019-03-04T14:12:33.159Z,92.00
2019-03-04T14:13:17.998Z,92.10
2019-03-04T14:14:02.585Z,92.00
2019-03-04T14:14:47.989Z,92.10
2019-03-04T14:15:40.315Z,92.10
2019-03-04T14:16:29.552Z,91.90
2019-03-04T14:17:24.140Z,92.20
2019-03-04T14:18:10.257Z,92.50
2019-03-04T14:18:54.584Z,92.50
2019-03-04T14:20:33.866Z,92.00
2019-03-04T14:21:24.028Z,91.80
2019-03-04T14:22:19.966Z,91.60
2019-03-04T14:23:04.307Z,91.70
2019-03-04T14:23:49.315Z,91.50
2019-03-04T14:24:40.595Z,91.70
2019-03-04T14:25:25.329Z,91.70
2019-03-04T14:26:11.308Z,92.00
2019-03-04T14:26:56.313Z,91.70
2019-03-04T14:27:42.106Z,91.60
2019-03-04T14:28:28.365Z,91.60
2019-03-04T14:29:17.362Z,91.70
2019-03-04T14:30:01.988Z,91.60
2019-03-04T14:30:48.572Z,91.50
2019-03-04T14:31:36.095Z,91.50
2019-03-04T14:32:21.306Z,91.50
2019-03-04T14:33:06.093Z,91.50
2019-03-04T14:33:48.560Z,91.50
2019-03-04T14:34:34.315Z,91.40
2019-03-04T14:35:20.315Z,91.50
2019-03-04T14:36:04.999Z,91.50
2019-03-04T14:36:53.087Z,91.40
2019-03-04T14:37:37.942Z,91.60
2019-03-04T14:38:22.980Z,91.40
2019-03-04T14:39:07.310Z,91.40
2019-03-04T14:39:54.313Z,91.40
2019-03-04T14:40:39.964Z,91.40
2019-03-04T14:41:24.535Z,91.50
2019-03-04T14:42:10.323Z,91.40
2019-03-04T14:42:55.432Z,91.50
2019-03-04T14:43:42.052Z,91.40
2019-03-04T14:44:30.134Z,91.40
2019-03-04T14:45:20.318Z,91.40
2019-03-04T14:46:14.658Z,91.30
2019-03-04T14:47:02.626Z,91.40
2019-03-04T14:47:45.004Z,91.30
2019-03-04T14:48:27.886Z,91.30
2019-03-04T14:49:15.307Z,91.30
2019-03-04T14:50:09.562Z,91.30
2019-03-04T14:51:52.815Z,91.30
2019-03-04T14:52:43.375Z,91.60
2019-03-04T14:53:29.584Z,91.00
2019-03-04T14:54:23.394Z,91.20
2019-03-04T14:55:15.312Z,91.20
2019-03-04T14:56:01.403Z,91.40
2019-03-04T14:56:48.948Z,91.30
2019-03-04T14:57:45.709Z,91.40
2019-03-04T14:58:30.112Z,91.20
2019-03-04T14:59:16.575Z,91.20
2019-03-04T15:00:00.991Z,91.40
2019-03-04T15:00:51.341Z,91.80
2019-03-04T15:01:35.951Z,91.40
2019-03-04T15:02:20.969Z,91.40
2019-03-04T15:03:05.383Z,91.40
2019-03-04T15:03:50.314Z,91.50
2019-03-04T15:04:35.525Z,91.50
2019-03-04T15:05:24.564Z,91.40
2019-03-04T15:06:09.314Z,91.40
2019-03-04T15:06:54.354Z,91.40
2019-03-04T15:07:38.996Z,91.40
2019-03-04T15:08:24.803Z,91.40
2019-03-04T15:09:11.977Z,91.20
2019-03-04T15:09:57.012Z,91.20
2019-03-04T15:10:44.131Z,91.30
2019-03-04T15:11:30.531Z,91.40
2019-03-04T15:12:18.308Z,91.30
2019-03-04T15:13:03.563Z,91.30
2019-03-04T15:13:48.198Z,91.30
2019-03-04T15:14:32.496Z,91.40
2019-03-04T15:15:21.306Z,91.60
2019-03-04T15:16:11.549Z,91.60
2019-03-04T15:17:03.363Z,91.40
2019-03-04T15:17:47.526Z,91.40
2019-03-04T15:18:35.181Z,91.00
2019-03-04T15:19:21.514Z,90.70
2019-03-04T15:20:09.851Z,90.80
2019-03-04T15:20:54.107Z,90.80
2019-03-04T15:21:38.656Z,91.00
2019-03-04T15:22:54.664Z,91.00
2019-03-04T15:23:41.508Z,90.90
2019-03-04T15:24:30.518Z,91.20
2019-03-04T15:25:21.913Z,91.20
2019-03-04T15:26:08.516Z,91.10
2019-03-04T15:26:56.493Z,91.20
2019-03-04T15:27:44.462Z,91.40
2019-03-04T15:28:31.674Z,91.50
2019-03-04T15:29:18.523Z,91.50
2019-03-04T15:30:08.521Z,91.60
2019-03-04T15:30:58.544Z,91.60
2019-03-04T15:31:45.974Z,91.60
2019-03-04T15:32:29.995Z,91.60
2019-03-04T15:34:00.797Z,91.50
2019-03-04T15:34:54.542Z,91.50
2019-03-04T15:35:50.111Z,91.50
2019-03-04T15:36:35.315Z,91.70
2019-03-04T15:37:22.409Z,91.70
2019-03-04T15:38:10.534Z,91.70
2019-03-04T15:38:54.985Z,91.80
2019-03-04T15:39:40.894Z,91.70
2019-03-04T15:40:26.878Z,91.50
